Time;durP1;ratioP1;P1;durP2;ratioP2;P2;SDS_P1;SDS_P2;PMS_P1;PMS_P2;Temp;Humidity;BMP_temperature;BMP_pressure;BME280_temperature;BME280_humidity;BME280_pressure;Samples;Min_cycle;Max_cycle;Signal;HPM_P1;HPM_P2
2022/12/18 00:01:44;;;;;;;10.27;9.97;;;-10.60;99.90;;;;;;5042670;28;20250;-83
2022/12/18 00:04:22;;;;;;;9.73;9.43;;;-10.60;99.90;;;;;;5042430;28;20676;-84
2022/12/18 00:06:50;;;;;;;10.03;9.73;;;-10.70;99.90;;;;;;5043290;28;20275;-83
2022/12/18 00:09:21;;;;;;;10.00;9.70;;;-10.70;99.90;;;;;;5043026;28;20258;-83
2022/12/18 00:11:50;;;;;;;9.93;9.63;;;-10.70;99.90;;;;;;5043006;28;20241;-83
2022/12/18 00:14:20;;;;;;;9.80;9.50;;;-10.80;99.90;;;;;;5043403;28;20257;-84
2022/12/18 00:16:49;;;;;;;9.90;9.60;;;-10.90;99.90;;;;;;5044284;28;20337;-84
2022/12/18 00:19:21;;;;;;;9.80;9.50;;;-10.90;99.90;;;;;;5042867;28;20237;-84
2022/12/18 00:21:48;;;;;;;10.20;9.90;;;-10.90;99.90;;;;;;5042490;28;20230;-83
2022/12/18 00:24:18;;;;;;;10.20;9.90;;;-11.00;99.90;;;;;;5042016;28;20321;-83
2022/12/18 00:26:47;;;;;;;9.77;9.47;;;-11.00;99.90;;;;;;5042415;28;20268;-84
2022/12/18 00:29:17;;;;;;;9.97;9.67;;;-10.90;99.90;;;;;;5042728;28;20233;-83
2022/12/18 00:31:47;;;;;;;10.30;10.00;;;-10.90;99.90;;;;;;5042739;28;20229;-83
2022/12/18 00:34:15;;;;;;;10.07;9.77;;;-10.90;99.90;;;;;;5041905;28;20260;-83
2022/12/18 00:36:54;;;;;;;10.10;9.80;;;-11.00;99.90;;;;;;5042383;28;20337;-83
2022/12/18 00:39:23;;;;;;;9.90;9.60;;;-11.00;99.90;;;;;;5050714;28;20218;-83
2022/12/18 00:44:36;;;;;;;9.57;9.27;;;-10.90;99.90;;;;;;5059295;28;20220;-83
2022/12/18 00:47:06;;;;;;;9.93;9.63;;;-10.90;99.90;;;;;;5059418;28;20236;-83
2022/12/18 00:52:26;;;;;;;10.17;9.87;;;-10.70;99.90;;;;;;5038717;28;20223;-84
2022/12/18 00:54:55;;;;;;;10.03;9.73;;;-10.70;99.90;;;;;;5040466;28;20314;-84
2022/12/18 00:57:24;;;;;;;9.53;9.23;;;-10.70;99.90;;;;;;5040108;28;20230;-83
2022/12/18 00:59:53;;;;;;;9.90;9.60;;;-10.70;99.90;;;;;;5040865;28;20238;-83
2022/12/18 01:02:22;;;;;;;9.77;9.47;;;-10.70;99.90;;;;;;5040331;28;20263;-83
2022/12/18 01:04:54;;;;;;;9.70;9.40;;;-10.80;99.90;;;;;;5039601;28;20250;-83
2022/12/18 01:07:34;;;;;;;9.80;9.50;;;-11.00;99.90;;;;;;5039148;28;20263;-84
2022/12/18 01:10:01;;;;;;;9.70;9.40;;;-11.20;99.90;;;;;;5039990;28;20225;-83
2022/12/18 01:12:30;;;;;;;9.77;9.47;;;-11.20;99.90;;;;;;5040833;28;20230;-83
2022/12/18 01:14:59;;;;;;;9.80;9.50;;;-11.30;99.90;;;;;;5041200;28;20265;-82
2022/12/18 01:17:29;;;;;;;9.37;9.07;;;-11.30;99.90;;;;;;5041703;28;20534;-83
2022/12/18 01:19:58;;;;;;;9.77;9.47;;;-11.30;99.90;;;;;;5040589;28;20304;-82
2022/12/18 01:22:30;;;;;;;10.07;9.77;;;-11.20;99.90;;;;;;5039756;28;20226;-82
2022/12/18 01:24:57;;;;;;;10.33;10.03;;;-11.10;99.90;;;;;;5040711;28;20245;-82
2022/12/18 01:27:26;;;;;;;10.17;9.87;;;-11.10;99.90;;;;;;5041563;28;20308;-83
2022/12/18 01:29:56;;;;;;;10.50;10.20;;;-10.90;99.90;;;;;;5041849;28;20286;-83
2022/12/18 01:32:24;;;;;;;10.50;10.20;;;-10.80;99.90;;;;;;5041304;28;20216;-83
2022/12/18 01:34:55;;;;;;;10.07;9.77;;;-10.60;99.90;;;;;;5041664;28;20704;-83
2022/12/18 01:37:24;;;;;;;9.87;9.57;;;-10.60;99.90;;;;;;5041876;28;20268;-83
2022/12/18 01:40:02;;;;;;;9.57;9.27;;;-10.40;99.90;;;;;;5042254;28;20227;-82
2022/12/18 01:42:30;;;;;;;10.00;9.70;;;-10.30;99.90;;;;;;5041296;28;20227;-82
2022/12/18 01:45:02;;;;;;;9.87;9.57;;;-10.20;99.90;;;;;;5041303;28;20315;-83
2022/12/18 01:47:40;;;;;;;10.00;9.70;;;-10.10;99.90;;;;;;5042409;28;20298;-83
2022/12/18 01:50:19;;;;;;;9.77;9.47;;;-9.90;99.90;;;;;;5042870;28;20230;-83
2022/12/18 01:52:53;;;;;;;9.67;9.37;;;-9.90;99.90;;;;;;5042429;28;20223;-82
2022/12/18 01:55:27;;;;;;;9.77;9.47;;;-9.80;99.90;;;;;;5042120;28;20246;-83
2022/12/18 01:57:59;;;;;;;9.50;9.20;;;-9.70;99.90;;;;;;5042473;28;20270;-83
2022/12/18 02:00:27;;;;;;;9.53;9.23;;;-9.60;99.90;;;;;;5041862;28;20266;-82
2022/12/18 02:02:55;;;;;;;9.60;9.30;;;-9.40;99.90;;;;;;5042639;28;20224;-83
2022/12/18 02:05:34;;;;;;;9.50;9.20;;;-9.40;99.90;;;;;;5043607;28;20270;-83
2022/12/18 02:08:12;;;;;;;9.07;8.77;;;-9.40;99.90;;;;;;5058498;28;20227;-82
2022/12/18 02:10:53;;;;;;;9.60;9.30;;;-9.30;99.90;;;;;;5053877;28;20223;-83
2022/12/18 02:13:26;;;;;;;9.57;9.27;;;-9.20;99.90;;;;;;5106407;22;20333;-79
2022/12/18 02:16:04;;;;;;;9.80;9.50;;;-9.10;99.90;;;;;;5078992;28;20238;-82
2022/12/18 02:18:37;;;;;;;9.57;9.27;;;-9.00;99.90;;;;;;5067997;28;20248;-80
2022/12/18 02:21:14;;;;;;;9.60;9.30;;;-9.00;99.90;;;;;;5067565;28;20321;-82
2022/12/18 02:23:52;;;;;;;9.37;9.07;;;-8.90;99.90;;;;;;5067628;28;20234;-80
2022/12/18 02:26:31;;;;;;;9.50;9.20;;;-8.90;99.90;;;;;;5067167;28;20257;-80
2022/12/18 02:29:09;;;;;;;9.47;9.17;;;-8.80;99.90;;;;;;5066946;28;20219;-79
2022/12/18 02:31:47;;;;;;;9.20;8.90;;;-8.70;99.90;;;;;;5065502;28;20290;-80
2022/12/18 02:34:17;;;;;;;9.30;9.00;;;-8.60;99.90;;;;;;5065552;28;20229;-80
2022/12/18 02:36:47;;;;;;;9.30;9.00;;;-8.50;99.90;;;;;;5065105;28;20314;-80
2022/12/18 02:39:17;;;;;;;9.10;8.80;;;-8.40;99.90;;;;;;5066351;28;20243;-81
2022/12/18 02:44:32;;;;;;;9.50;9.20;;;-8.20;99.90;;;;;;5073650;28;20214;-80
2022/12/18 02:47:01;;;;;;;9.57;9.27;;;-8.20;99.90;;;;;;5070857;28;20262;-81
2022/12/18 02:49:40;;;;;;;9.27;8.97;;;-8.10;99.90;;;;;;5067343;28;20334;-80
2022/12/18 02:52:19;;;;;;;9.50;9.20;;;-8.10;99.90;;;;;;5066279;28;20367;-81
2022/12/18 02:57:53;;;;;;;9.33;9.03;;;-7.90;99.90;;;;;;5069765;28;20230;-79
2022/12/18 03:00:24;;;;;;;9.70;9.40;;;-7.80;99.90;;;;;;5065661;28;20384;-80
2022/12/18 03:03:01;;;;;;;9.47;9.17;;;-7.80;99.90;;;;;;5065528;28;20262;-80
2022/12/18 03:05:38;;;;;;;9.40;9.10;;;-7.70;99.90;;;;;;5065274;28;20285;-80
2022/12/18 03:08:18;;;;;;;9.60;9.30;;;-7.60;99.90;;;;;;5064865;28;20229;-80
2022/12/18 03:10:54;;;;;;;9.30;9.00;;;-7.60;99.90;;;;;;5064546;28;20227;-80
2022/12/18 03:13:35;;;;;;;9.63;9.33;;;-7.60;99.90;;;;;;5064828;28;20243;-81
2022/12/18 03:16:04;;;;;;;9.40;9.10;;;-7.50;99.90;;;;;;5074812;28;20381;-80
2022/12/18 03:18:40;;;;;;;9.37;9.07;;;-7.40;99.90;;;;;;5086526;28;20284;-80
2022/12/18 03:21:11;;;;;;;9.43;9.13;;;-7.40;99.90;;;;;;5088729;28;20293;-80
2022/12/18 03:23:49;;;;;;;9.50;9.20;;;-7.40;99.90;;;;;;5086597;28;20239;-81
2022/12/18 03:26:20;;;;;;;9.63;9.33;;;-7.40;99.90;;;;;;5087460;28;20339;-80
2022/12/18 03:28:55;;;;;;;9.43;9.13;;;-7.30;99.90;;;;;;5087201;28;20255;-81
2022/12/18 03:31:26;;;;;;;9.30;9.00;;;-7.20;99.90;;;;;;5086324;28;20242;-80
2022/12/18 03:33:57;;;;;;;9.63;9.33;;;-7.20;99.90;;;;;;5086471;28;20249;-80
2022/12/18 03:36:25;;;;;;;9.20;8.90;;;-7.10;99.90;;;;;;5086408;28;20241;-80
2022/12/18 03:38:53;;;;;;;9.43;9.13;;;-7.00;99.90;;;;;;5086201;28;20239;-81
2022/12/18 03:41:32;;;;;;;9.50;9.20;;;-7.00;99.90;;;;;;5085153;28;20250;-81
2022/12/18 03:44:19;;;;;;;9.37;9.07;;;-6.90;99.90;;;;;;5086367;28;20255;-81
2022/12/18 03:46:57;;;;;;;9.50;9.20;;;-6.80;99.90;;;;;;5086126;28;20230;-81
2022/12/18 03:49:35;;;;;;;9.60;9.30;;;-6.70;99.90;;;;;;5085791;28;20279;-81
2022/12/18 03:52:07;;;;;;;9.47;9.17;;;-6.60;99.90;;;;;;5085559;28;20712;-80
2022/12/18 03:54:37;;;;;;;9.27;8.97;;;-6.60;99.90;;;;;;5085739;28;20257;-81
2022/12/18 03:57:14;;;;;;;9.40;9.10;;;-6.60;99.90;;;;;;5086034;28;20242;-81
2022/12/18 03:59:52;;;;;;;9.40;9.10;;;-6.50;99.90;;;;;;5086067;28;20235;-81
2022/12/18 04:02:21;;;;;;;9.43;9.13;;;-6.40;99.90;;;;;;5085569;28;20238;-81
2022/12/18 04:04:52;;;;;;;9.27;8.97;;;-6.40;99.90;;;;;;5086384;28;20236;-81
2022/12/18 04:07:20;;;;;;;9.30;9.00;;;-6.40;99.90;;;;;;5094297;28;20504;-81
2022/12/18 04:09:51;;;;;;;9.10;8.80;;;-6.40;99.90;;;;;;5093788;28;20247;-81
2022/12/18 04:12:20;;;;;;;9.60;9.30;;;-6.40;99.90;;;;;;5087629;28;20238;-81
2022/12/18 04:14:51;;;;;;;9.50;9.20;;;-6.30;99.90;;;;;;5085854;28;20269;-81
2022/12/18 04:17:19;;;;;;;9.30;9.00;;;-6.20;99.90;;;;;;5086455;28;20238;-81
2022/12/18 04:19:47;;;;;;;9.50;9.20;;;-6.10;99.90;;;;;;5086357;28;20258;-81
2022/12/18 04:22:18;;;;;;;9.23;8.93;;;-6.10;99.90;;;;;;5084951;28;20266;-81
2022/12/18 04:24:47;;;;;;;9.23;8.93;;;-6.00;99.90;;;;;;5092151;28;20246;-80
2022/12/18 04:27:17;;;;;;;9.20;8.90;;;-6.00;99.90;;;;;;5083088;28;20236;-81
2022/12/18 04:29:45;;;;;;;9.50;9.20;;;-6.10;99.90;;;;;;5082204;28;20232;-81
2022/12/18 04:32:27;;;;;;;9.40;9.10;;;-6.10;99.90;;;;;;5082550;28;20243;-81
2022/12/18 04:34:54;;;;;;;9.40;9.10;;;-6.10;99.90;;;;;;5082777;28;20301;-81
2022/12/18 04:37:22;;;;;;;9.60;9.30;;;-6.10;99.90;;;;;;5089822;28;20272;-81
2022/12/18 04:39:52;;;;;;;9.40;9.10;;;-6.10;99.90;;;;;;5092013;28;20238;-81
2022/12/18 04:42:21;;;;;;;9.50;9.20;;;-6.20;99.90;;;;;;5092678;28;20236;-81
2022/12/18 04:44:51;;;;;;;9.47;9.17;;;-6.20;99.90;;;;;;5088156;28;20229;-81
2022/12/18 04:47:29;;;;;;;9.53;9.23;;;-6.30;99.90;;;;;;5083106;28;20294;-81
2022/12/18 04:49:58;;;;;;;9.17;8.87;;;-6.20;99.90;;;;;;5083829;28;20236;-81
2022/12/18 04:52:28;;;;;;;9.50;9.20;;;-6.10;99.90;;;;;;5083916;28;20327;-81
2022/12/18 04:54:58;;;;;;;9.10;8.80;;;-6.00;99.90;;;;;;5083514;28;20314;-80
2022/12/18 04:57:27;;;;;;;9.10;8.80;;;-6.10;99.90;;;;;;5083792;28;20213;-81
2022/12/18 04:59:57;;;;;;;9.20;8.90;;;-6.00;99.90;;;;;;5084239;28;20332;-81
2022/12/18 05:02:36;;;;;;;9.20;8.90;;;-6.00;99.90;;;;;;5060083;28;20320;-81
2022/12/18 05:05:04;;;;;;;9.27;8.97;;;-6.00;99.90;;;;;;5063160;28;20246;-81
2022/12/18 05:07:33;;;;;;;9.30;9.00;;;-6.00;99.90;;;;;;5062867;28;20234;-82
2022/12/18 05:10:03;;;;;;;9.13;8.83;;;-6.00;99.90;;;;;;5062797;28;20269;-81
2022/12/18 05:12:32;;;;;;;9.10;8.80;;;-5.90;99.90;;;;;;5061812;28;20334;-81
2022/12/18 05:15:02;;;;;;;9.00;8.70;;;-5.90;99.90;;;;;;5062295;28;20227;-81
2022/12/18 05:17:51;;;;;;;9.20;8.90;;;-5.90;99.90;;;;;;5062364;28;20232;-81
2022/12/18 05:20:18;;;;;;;9.07;8.77;;;-5.90;99.90;;;;;;5062815;28;20263;-81
2022/12/18 05:22:48;;;;;;;9.20;8.90;;;-5.90;99.90;;;;;;5043078;28;20238;-81
2022/12/18 05:25:17;;;;;;;9.10;8.80;;;-5.90;99.90;;;;;;5042322;28;20235;-82
2022/12/18 05:27:47;;;;;;;8.93;8.63;;;-5.80;99.90;;;;;;5047404;28;20214;-81
2022/12/18 05:30:16;;;;;;;8.87;8.57;;;-5.80;99.90;;;;;;5057249;28;20218;-81
2022/12/18 05:32:47;;;;;;;9.10;8.80;;;-5.80;99.90;;;;;;5046092;28;20265;-81
2022/12/18 05:35:16;;;;;;;9.10;8.80;;;-5.70;99.90;;;;;;5044213;28;20233;-81
2022/12/18 05:37:44;;;;;;;9.13;8.83;;;-5.70;99.90;;;;;;5045809;28;20323;-81
2022/12/18 05:40:14;;;;;;;9.03;8.73;;;-5.70;99.90;;;;;;5057634;28;20294;-81
2022/12/18 05:42:43;;;;;;;9.20;8.90;;;-5.70;99.90;;;;;;5066489;28;20257;-81
2022/12/18 05:45:12;;;;;;;9.20;8.90;;;-5.60;99.90;;;;;;5066234;28;20302;-80
2022/12/18 05:47:42;;;;;;;9.00;8.70;;;-5.60;99.90;;;;;;5065752;28;20253;-81
2022/12/18 05:50:21;;;;;;;9.10;8.80;;;-5.60;99.90;;;;;;5065878;28;20238;-81
2022/12/18 05:52:50;;;;;;;8.80;8.53;;;-5.60;99.90;;;;;;5065804;28;20243;-81
2022/12/18 05:55:20;;;;;;;9.30;9.00;;;-5.50;99.90;;;;;;5072890;28;20265;-81
2022/12/18 05:57:51;;;;;;;9.00;8.70;;;-5.60;99.90;;;;;;5075090;28;20301;-81
2022/12/18 06:00:19;;;;;;;9.10;8.80;;;-5.50;99.90;;;;;;5070292;28;20230;-82
2022/12/18 06:02:49;;;;;;;9.10;8.80;;;-5.50;99.90;;;;;;5069437;28;20326;-81
2022/12/18 06:05:21;;;;;;;9.10;8.80;;;-5.40;99.90;;;;;;5068966;28;20229;-82
2022/12/18 06:07:48;;;;;;;9.10;8.80;;;-5.40;99.90;;;;;;5068911;28;20217;-82
2022/12/18 06:10:18;;;;;;;8.77;8.53;;;-5.40;99.90;;;;;;5067456;28;20283;-82
2022/12/18 06:12:47;;;;;;;9.10;8.80;;;-5.30;99.90;;;;;;5067879;28;20325;-82
2022/12/18 06:15:16;;;;;;;8.90;8.60;;;-5.30;99.90;;;;;;5067867;28;20245;-82
2022/12/18 06:17:45;;;;;;;8.93;8.63;;;-5.30;99.90;;;;;;5069709;28;20257;-82
2022/12/18 06:20:15;;;;;;;9.10;8.80;;;-5.30;99.90;;;;;;5066504;28;20776;-82
2022/12/18 06:23:04;;;;;;;9.10;8.80;;;-5.30;99.90;;;;;;5065764;28;20313;-82
2022/12/18 06:25:33;;;;;;;9.03;8.73;;;-5.30;99.90;;;;;;5067523;28;20258;-82
2022/12/18 06:28:01;;;;;;;9.07;8.77;;;-5.30;99.90;;;;;;5067301;28;20289;-81
2022/12/18 06:30:32;;;;;;;9.23;8.93;;;-5.30;99.90;;;;;;5067250;28;20233;-82
2022/12/18 06:33:01;;;;;;;8.93;8.63;;;-5.20;99.90;;;;;;5066382;28;20265;-82
2022/12/18 06:35:29;;;;;;;9.00;8.70;;;-5.30;99.90;;;;;;5066948;28;20245;-82
2022/12/18 06:38:00;;;;;;;9.23;8.93;;;-5.30;99.90;;;;;;5067353;28;20265;-82
2022/12/18 06:40:31;;;;;;;9.10;8.80;;;-5.20;99.90;;;;;;5067249;28;20254;-82
2022/12/18 06:42:58;;;;;;;8.90;8.60;;;-5.20;99.90;;;;;;5066242;28;20246;-81
2022/12/18 06:45:28;;;;;;;9.10;8.80;;;-5.00;99.90;;;;;;5066803;28;20230;-81
2022/12/18 06:47:57;;;;;;;9.33;9.03;;;-5.10;99.90;;;;;;5066231;28;20242;-81
2022/12/18 06:50:26;;;;;;;9.40;9.10;;;-5.10;99.90;;;;;;5065744;28;20378;-81
2022/12/18 06:52:56;;;;;;;9.27;8.97;;;-5.10;99.90;;;;;;5065296;28;20323;-81
2022/12/18 06:55:25;;;;;;;9.13;8.83;;;-5.10;99.90;;;;;;5065664;28;20243;-81
2022/12/18 06:58:04;;;;;;;9.43;9.13;;;-5.10;99.90;;;;;;5066000;28;20234;-81
2022/12/18 07:00:35;;;;;;;9.33;9.03;;;-5.20;99.90;;;;;;5066944;28;20235;-81
2022/12/18 07:03:03;;;;;;;9.37;9.07;;;-5.20;99.90;;;;;;5065884;28;20287;-81
2022/12/18 07:05:31;;;;;;;9.60;9.30;;;-5.30;99.90;;;;;;5065943;28;20221;-80
2022/12/18 07:08:01;;;;;;;9.80;9.50;;;-5.30;99.90;;;;;;5065794;28;20282;-81
2022/12/18 07:10:31;;;;;;;9.70;9.40;;;-5.40;99.90;;;;;;5064617;28;20352;-80
2022/12/18 07:13:02;;;;;;;9.50;9.20;;;-5.30;99.90;;;;;;5065902;28;20238;-80
2022/12/18 07:15:30;;;;;;;9.53;9.23;;;-5.20;99.90;;;;;;5065827;28;20288;-80
2022/12/18 07:17:59;;;;;;;9.10;8.80;;;-5.20;99.90;;;;;;5066406;28;20246;-81
2022/12/18 07:20:28;;;;;;;9.40;9.10;;;-5.10;99.90;;;;;;5066023;28;20242;-80
2022/12/18 07:22:58;;;;;;;9.40;9.10;;;-5.10;99.90;;;;;;5066181;28;20290;-80
2022/12/18 07:25:27;;;;;;;9.50;9.20;;;-5.00;99.90;;;;;;5066245;28;20226;-81
2022/12/18 07:27:56;;;;;;;9.40;9.10;;;-5.00;99.90;;;;;;5066699;28;20234;-80
2022/12/18 07:30:35;;;;;;;9.47;9.17;;;-5.00;99.90;;;;;;5066643;28;20231;-81
2022/12/18 07:33:05;;;;;;;9.73;9.43;;;-5.00;99.90;;;;;;5066063;28;20276;-81
2022/12/18 07:35:34;;;;;;;9.63;9.33;;;-5.00;99.90;;;;;;5067000;28;20226;-79
2022/12/18 07:38:03;;;;;;;9.70;9.40;;;-5.00;99.90;;;;;;5070585;28;20375;-81
2022/12/18 07:40:32;;;;;;;10.20;9.90;;;-5.00;99.90;;;;;;5069560;28;20372;-83
2022/12/18 07:43:03;;;;;;;9.80;9.50;;;-4.90;99.90;;;;;;5072624;28;20222;-85
2022/12/18 07:45:41;;;;;;;9.27;8.97;;;-4.70;99.90;;;;;;5071188;28;20224;-84
2022/12/18 07:48:10;;;;;;;9.60;9.30;;;-4.60;99.90;;;;;;5064980;28;20225;-79
2022/12/18 07:50:39;;;;;;;9.43;9.13;;;-4.60;99.90;;;;;;5062478;28;20253;-83
2022/12/18 07:53:08;;;;;;;9.30;9.00;;;-4.50;99.90;;;;;;5061724;28;20234;-84
2022/12/18 07:55:38;;;;;;;9.50;9.20;;;-4.50;99.90;;;;;;5062493;28;20231;-85
2022/12/18 07:58:11;;;;;;;9.43;9.13;;;-4.40;99.90;;;;;;5061787;28;20314;-84
2022/12/18 08:00:41;;;;;;;9.50;9.20;;;-4.50;99.90;;;;;;5063699;28;20262;-81
2022/12/18 08:03:08;;;;;;;9.20;8.90;;;-4.50;99.90;;;;;;5050966;28;20295;-81
2022/12/18 08:05:37;;;;;;;9.40;9.10;;;-4.50;99.90;;;;;;5064317;28;20235;-83
2022/12/18 08:08:07;;;;;;;9.40;9.10;;;-4.50;99.90;;;;;;5064694;28;20302;-82
2022/12/18 08:10:36;;;;;;;9.43;9.13;;;-4.50;99.90;;;;;;5065784;28;20294;-82
2022/12/18 08:13:06;;;;;;;9.47;9.17;;;-4.40;99.90;;;;;;5067699;28;20255;-82
2022/12/18 08:15:35;;;;;;;9.47;9.17;;;-4.50;99.90;;;;;;5125749;22;20238;-83
2022/12/18 08:18:05;;;;;;;9.40;9.10;;;-4.40;99.90;;;;;;5107926;28;20234;-82
2022/12/18 08:20:33;;;;;;;9.40;9.10;;;-4.40;99.90;;;;;;5099723;28;20240;-81
2022/12/18 08:23:03;;;;;;;9.50;9.20;;;-4.40;99.90;;;;;;5102645;28;20225;-82
2022/12/18 08:25:33;;;;;;;9.50;9.20;;;-4.40;99.90;;;;;;5099159;28;20237;-83
2022/12/18 08:28:02;;;;;;;9.57;9.27;;;-4.30;99.90;;;;;;5099096;28;20202;-83
2022/12/18 08:30:30;;;;;;;9.27;8.97;;;-4.40;99.90;;;;;;5100012;28;20211;-83
2022/12/18 08:32:59;;;;;;;9.23;8.93;;;-4.30;99.90;;;;;;5098920;28;20233;-81
2022/12/18 08:35:31;;;;;;;9.40;9.10;;;-4.30;99.90;;;;;;5098650;28;20281;-82
2022/12/18 08:37:58;;;;;;;9.30;9.00;;;-4.30;99.90;;;;;;5089240;28;20203;-82
2022/12/18 08:40:29;;;;;;;9.30;9.00;;;-4.20;99.90;;;;;;5097317;28;20249;-83
2022/12/18 08:45:43;;;;;;;9.13;8.83;;;-4.20;99.90;;;;;;5099041;28;20234;-82
2022/12/18 08:48:12;;;;;;;9.20;8.90;;;-4.10;99.90;;;;;;5099399;28;20233;-82
2022/12/18 08:50:42;;;;;;;9.00;8.70;;;-4.10;99.90;;;;;;5099338;28;20214;-81
2022/12/18 08:53:10;;;;;;;9.47;9.17;;;-4.10;99.90;;;;;;5099052;28;20222;-82
2022/12/18 08:55:38;;;;;;;9.10;8.80;;;-4.00;99.90;;;;;;5098785;28;20214;-81
2022/12/18 08:58:06;;;;;;;8.90;8.60;;;-3.90;99.90;;;;;;5089414;28;20384;-82
2022/12/18 09:00:34;;;;;;;9.00;8.70;;;-3.80;99.90;;;;;;5079459;28;20272;-81
2022/12/18 09:03:04;;;;;;;9.10;8.80;;;-3.80;99.90;;;;;;5078632;28;20245;-82
2022/12/18 09:05:33;;;;;;;9.13;8.83;;;-3.80;99.90;;;;;;5080979;28;20265;-82
2022/12/18 09:08:03;;;;;;;9.10;8.80;;;-3.80;99.90;;;;;;5081005;28;20328;-82
2022/12/18 09:10:31;;;;;;;9.23;8.93;;;-3.80;99.90;;;;;;5081106;28;20286;-81
2022/12/18 09:13:00;;;;;;;9.20;8.90;;;-3.90;99.90;;;;;;5085461;28;20237;-81
2022/12/18 09:15:28;;;;;;;9.13;8.83;;;-3.90;99.90;;;;;;5084283;28;20303;-82
2022/12/18 09:17:58;;;;;;;8.80;8.53;;;-3.90;99.90;;;;;;5086983;28;20226;-82
2022/12/18 09:20:28;;;;;;;9.00;8.70;;;-3.80;99.90;;;;;;5084663;28;20242;-82
2022/12/18 09:22:57;;;;;;;9.07;8.77;;;-3.80;99.90;;;;;;5086171;28;20238;-81
2022/12/18 09:25:35;;;;;;;9.20;8.90;;;-3.90;99.90;;;;;;5082511;28;20329;-82
2022/12/18 09:28:05;;;;;;;9.30;9.00;;;-3.80;99.90;;;;;;5087486;28;20222;-81
2022/12/18 09:30:33;;;;;;;9.37;9.07;;;-3.80;99.90;;;;;;5076943;28;20264;-81
2022/12/18 09:33:08;;;;;;;9.00;8.70;;;-3.80;99.90;;;;;;5091620;28;20324;-81
2022/12/18 09:35:38;;;;;;;9.17;8.87;;;-3.80;99.90;;;;;;5089456;28;20237;-81
2022/12/18 09:38:06;;;;;;;9.00;8.70;;;-3.80;99.90;;;;;;5086970;28;20222;-82
2022/12/18 09:40:43;;;;;;;9.00;8.70;;;-3.70;99.90;;;;;;5087273;28;20242;-83
2022/12/18 09:43:19;;;;;;;9.20;8.90;;;-3.70;99.90;;;;;;5086903;28;20256;-83
2022/12/18 09:45:51;;;;;;;9.03;8.73;;;-3.60;99.90;;;;;;5086895;28;20240;-83
2022/12/18 09:48:26;;;;;;;8.93;8.63;;;-3.60;99.90;;;;;;5086557;28;20308;-81
2022/12/18 09:51:01;;;;;;;9.13;8.83;;;-3.50;99.90;;;;;;5086032;28;20260;-84
2022/12/18 09:53:35;;;;;;;9.27;8.97;;;-3.50;99.90;;;;;;5086581;28;20222;-82
2022/12/18 09:56:06;;;;;;;9.37;9.07;;;-3.50;99.90;;;;;;5087528;28;20234;-82
2022/12/18 09:58:40;;;;;;;9.07;8.77;;;-3.50;99.90;;;;;;5086444;28;20235;-81
2022/12/18 10:01:13;;;;;;;9.20;8.90;;;-3.50;99.90;;;;;;5088295;28;20296;-82
2022/12/18 10:03:41;;;;;;;9.10;8.80;;;-3.50;99.90;;;;;;5088286;28;20265;-81
2022/12/18 10:06:16;;;;;;;8.67;8.47;;;-3.50;99.90;;;;;;5085944;28;20238;-82
2022/12/18 10:08:51;;;;;;;9.17;8.87;;;-3.50;99.90;;;;;;5087973;28;20229;-83
2022/12/18 10:11:40;;;;;;;8.93;8.63;;;-3.50;99.90;;;;;;5084939;28;20253;-81
2022/12/18 10:14:19;;;;;;;8.73;8.53;;;-3.60;99.90;;;;;;5087778;28;20230;-82
2022/12/18 10:17:01;;;;;;;8.43;8.23;;;-3.60;99.90;;;;;;5080769;28;20242;-81
2022/12/18 10:19:49;;;;;;;8.40;8.20;;;-3.60;99.90;;;;;;5078921;28;20739;-81
2022/12/18 10:22:33;;;;;;;8.57;8.37;;;-3.50;99.90;;;;;;5084388;28;20234;-82
2022/12/18 10:25:07;;;;;;;8.80;8.60;;;-3.30;99.90;;;;;;5088782;28;20238;-81
2022/12/18 10:27:40;;;;;;;8.60;8.40;;;-3.10;99.90;;;;;;5089026;28;20265;-82
2022/12/18 10:30:16;;;;;;;8.77;8.57;;;-3.00;99.90;;;;;;5089078;28;20222;-83
2022/12/18 10:32:44;;;;;;;8.67;8.47;;;-3.00;99.90;;;;;;5085694;28;20241;-83
2022/12/18 10:35:23;;;;;;;8.77;8.57;;;-3.00;99.90;;;;;;5084971;28;20234;-82
2022/12/18 10:38:28;;;;;;;8.60;8.40;;;-3.00;99.90;;;;;;5085413;28;20230;-83
2022/12/18 10:40:59;;;;;;;8.60;8.40;;;-2.90;99.90;;;;;;5062953;28;20242;-84
2022/12/18 10:43:36;;;;;;;8.97;8.67;;;-2.90;99.90;;;;;;5084773;28;20257;-83
2022/12/18 10:46:15;;;;;;;8.40;8.20;;;-2.90;99.90;;;;;;5084802;28;20237;-82
2022/12/18 10:48:55;;;;;;;8.57;8.37;;;-2.80;99.90;;;;;;5087966;28;20237;-83
2022/12/18 10:51:26;;;;;;;9.03;8.73;;;-2.70;99.90;;;;;;5086477;28;20234;-81
2022/12/18 10:53:58;;;;;;;8.87;8.60;;;-2.70;99.90;;;;;;5086343;28;20256;-81
2022/12/18 10:56:28;;;;;;;9.10;8.80;;;-2.70;99.90;;;;;;5085373;28;20238;-83
2022/12/18 10:59:08;;;;;;;9.20;8.90;;;-2.60;99.90;;;;;;5084200;28;20232;-82
2022/12/18 11:01:57;;;;;;;9.20;8.90;;;-2.70;99.90;;;;;;5082205;28;20237;-84
2022/12/18 11:04:27;;;;;;;9.20;8.90;;;-2.70;99.90;;;;;;5065444;28;20245;-84
2022/12/18 11:07:01;;;;;;;9.30;9.00;;;-2.60;99.90;;;;;;5064973;28;20281;-83
2022/12/18 11:09:32;;;;;;;9.40;9.10;;;-2.60;99.90;;;;;;5065186;28;20214;-82
2022/12/18 11:12:03;;;;;;;9.30;9.00;;;-2.50;99.90;;;;;;5065517;28;20215;-82
2022/12/18 11:14:40;;;;;;;9.30;9.00;;;-2.40;99.90;;;;;;5065385;28;20258;-84
2022/12/18 11:17:23;;;;;;;9.40;9.10;;;-2.40;99.90;;;;;;5065893;28;20271;-83
2022/12/18 11:19:56;;;;;;;9.40;9.10;;;-2.50;99.90;;;;;;5064371;28;20263;-84
2022/12/18 11:22:28;;;;;;;9.40;9.10;;;-2.40;99.90;;;;;;5066309;28;20309;-83
2022/12/18 11:25:00;;;;;;;9.10;8.80;;;-2.50;99.90;;;;;;5072676;28;20237;-83
2022/12/18 11:27:31;;;;;;;9.20;8.90;;;-2.50;99.90;;;;;;5070972;28;20253;-83
2022/12/18 11:30:22;;;;;;;9.17;8.87;;;-2.60;99.90;;;;;;5078703;28;20230;-83
2022/12/18 11:36:09;;;;;;;9.33;9.03;;;-2.30;99.90;;;;;;5035521;28;20235;-82
2022/12/18 11:38:41;;;;;;;9.47;9.17;;;-2.10;99.90;;;;;;5084909;28;20297;-81
2022/12/18 11:41:21;;;;;;;9.20;8.90;;;-2.20;99.90;;;;;;5082247;28;20390;-83
2022/12/18 11:43:57;;;;;;;9.37;9.07;;;-2.30;99.90;;;;;;5086705;28;20214;-85
2022/12/18 11:46:35;;;;;;;9.27;8.97;;;-2.40;99.90;;;;;;5085245;28;20242;-84
2022/12/18 11:49:09;;;;;;;9.27;8.97;;;-2.30;99.90;;;;;;5082270;28;20254;-84
2022/12/18 11:51:46;;;;;;;9.40;9.10;;;-2.30;99.90;;;;;;5073699;28;20226;-83
2022/12/18 11:54:16;;;;;;;9.40;9.10;;;-2.30;99.90;;;;;;5065148;28;20253;-83
2022/12/18 11:56:54;;;;;;;9.40;9.10;;;-2.20;99.90;;;;;;5074968;28;20266;-85
2022/12/18 11:59:42;;;;;;;9.40;9.10;;;-2.00;99.90;;;;;;5076275;28;20238;-84
2022/12/18 12:02:44;;;;;;;9.30;9.00;;;-1.90;99.90;;;;;;5083843;28;20261;-84
2022/12/18 12:05:32;;;;;;;9.30;9.00;;;-2.00;99.90;;;;;;5085886;28;20241;-83
2022/12/18 12:08:08;;;;;;;9.20;8.90;;;-1.90;99.90;;;;;;5083883;28;20281;-84
2022/12/18 12:10:54;;;;;;;9.20;8.90;;;-1.90;99.90;;;;;;5073639;28;20255;-84
2022/12/18 12:13:44;;;;;;;8.77;8.57;;;-1.90;99.90;;;;;;5063196;28;20287;-84
2022/12/18 12:16:23;;;;;;;9.37;9.07;;;-2.00;99.90;;;;;;5064521;28;20251;-82
2022/12/18 12:19:16;;;;;;;9.47;9.17;;;-2.00;99.90;;;;;;5065845;28;20319;-82
2022/12/18 12:21:51;;;;;;;9.50;9.20;;;-2.00;99.90;;;;;;5064659;28;20322;-82
2022/12/18 12:24:34;;;;;;;9.60;9.30;;;-2.00;99.90;;;;;;5065516;28;20232;-81
2022/12/18 12:30:18;;;;;;;9.23;8.93;;;-2.10;99.90;;;;;;5057899;28;20235;-82
2022/12/18 12:33:14;;;;;;;9.10;8.80;;;-2.00;99.90;;;;;;5064192;28;20302;-83
2022/12/18 12:35:53;;;;;;;9.03;8.73;;;-2.10;99.90;;;;;;5071599;28;20230;-83
2022/12/18 12:38:28;;;;;;;9.23;8.93;;;-2.10;99.90;;;;;;5085235;28;20237;-82
2022/12/18 12:41:01;;;;;;;9.23;8.93;;;-2.00;99.90;;;;;;5082245;28;20418;-82
2022/12/18 12:43:38;;;;;;;9.17;8.87;;;-2.10;99.90;;;;;;5074213;28;20275;-82
2022/12/18 12:46:08;;;;;;;9.20;8.90;;;-2.10;99.90;;;;;;5077187;28;20261;-82
2022/12/18 12:48:44;;;;;;;9.27;8.97;;;-2.10;99.90;;;;;;5075270;28;20227;-82
2022/12/18 12:51:23;;;;;;;9.10;8.80;;;-2.20;99.90;;;;;;5084104;28;20258;-81
2022/12/18 12:53:52;;;;;;;9.17;8.87;;;-2.20;99.90;;;;;;5083925;28;20292;-82
2022/12/18 12:56:22;;;;;;;9.20;8.90;;;-2.20;99.90;;;;;;5085268;28;20231;-82
2022/12/18 12:59:03;;;;;;;9.17;8.87;;;-2.20;99.90;;;;;;5085524;28;20234;-88
2022/12/18 13:01:42;;;;;;;8.57;8.37;;;-2.10;99.90;;;;;;5085530;28;20827;-83
2022/12/18 13:04:26;;;;;;;9.10;8.80;;;-2.10;99.90;;;;;;5089221;28;20236;-83
2022/12/18 13:07:04;;;;;;;9.17;8.87;;;-2.10;99.90;;;;;;5084954;28;20264;-82
2022/12/18 13:09:33;;;;;;;9.17;8.87;;;-2.10;99.90;;;;;;5086424;28;20221;-82
2022/12/18 13:15:16;;;;;;;9.10;8.80;;;-2.00;99.90;;;;;;5084591;28;20305;-81
2022/12/18 13:17:45;;;;;;;9.20;8.90;;;-2.00;99.90;;;;;;5084932;28;20229;-84
2022/12/18 13:20:23;;;;;;;9.13;8.83;;;-1.90;99.90;;;;;;5085032;28;20257;-83
2022/12/18 13:22:56;;;;;;;9.03;8.73;;;-1.80;99.90;;;;;;5085897;28;20232;-83
2022/12/18 13:25:41;;;;;;;8.63;8.43;;;-1.70;99.90;;;;;;5083338;28;20240;-82
2022/12/18 13:28:12;;;;;;;9.00;8.70;;;-1.60;99.90;;;;;;5084279;28;20228;-82
2022/12/18 13:30:58;;;;;;;8.73;8.53;;;-1.70;99.90;;;;;;5086734;28;20337;-83
2022/12/18 13:33:44;;;;;;;8.70;8.50;;;-1.70;99.90;;;;;;5085625;28;20245;-83
2022/12/18 13:36:30;;;;;;;8.73;8.53;;;-1.70;99.90;;;;;;5094104;28;20236;-81
2022/12/18 13:39:34;;;;;;;8.60;8.40;;;-1.80;99.90;;;;;;5094263;28;20236;-83